createdAt,value
2019-05-21T00:01:32.585Z,2.40
2019-05-21T00:03:59.858Z,2.37
2019-05-21T00:06:27.126Z,2.03
2019-05-21T00:08:54.446Z,2.40
2019-05-21T00:11:21.719Z,4.23
2019-05-21T00:13:48.997Z,2.63
2019-05-21T00:16:16.370Z,2.93
2019-05-21T00:18:43.638Z,4.63
2019-05-21T00:21:10.919Z,3.83
2019-05-21T00:23:38.305Z,2.60
2019-05-21T00:26:05.636Z,2.90
2019-05-21T00:28:34.449Z,2.40
2019-05-21T00:31:19.864Z,3.87
2019-05-21T00:34:05.482Z,4.87
2019-05-21T00:36:52.825Z,2.77
2019-05-21T00:39:38.412Z,3.90
2019-05-21T00:42:05.265Z,3.97
2019-05-21T00:44:37.063Z,3.20
2019-05-21T00:47:05.282Z,4.50
2019-05-21T00:49:32.672Z,6.10
2019-05-21T00:52:08.144Z,4.80
2019-05-21T00:54:29.251Z,6.90
2019-05-21T00:56:56.623Z,3.90
2019-05-21T00:59:23.894Z,4.17
2019-05-21T01:01:51.462Z,4.93
2019-05-21T01:04:18.833Z,4.30
2019-05-21T01:06:46.167Z,4.70
2019-05-21T01:09:13.432Z,4.70
2019-05-21T01:11:40.737Z,5.97
2019-05-21T01:14:08.183Z,4.03
2019-05-21T01:16:35.444Z,5.67
2019-05-21T01:19:02.857Z,4.50
2019-05-21T01:21:30.125Z,4.07
2019-05-21T01:23:57.477Z,5.37
2019-05-21T01:26:24.837Z,4.13
2019-05-21T01:28:52.104Z,4.07
2019-05-21T01:31:19.436Z,5.33
2019-05-21T01:33:46.901Z,3.53
2019-05-21T01:36:14.165Z,5.03
2019-05-21T01:38:41.448Z,7.00
2019-05-21T01:41:08.745Z,4.60
2019-05-21T01:43:36.017Z,4.47
2019-05-21T01:46:03.354Z,5.27
2019-05-21T01:48:30.761Z,4.43
2019-05-21T01:50:58.036Z,5.90
2019-05-21T01:53:25.310Z,4.37
2019-05-21T01:55:52.618Z,5.80
2019-05-21T01:58:19.895Z,4.83
2019-05-21T02:00:47.235Z,7.27
2019-05-21T02:03:14.598Z,4.50
2019-05-21T02:05:41.869Z,7.43
2019-05-21T02:08:09.151Z,4.40
2019-05-21T02:10:36.525Z,4.67
2019-05-21T02:13:03.864Z,5.57
2019-05-21T02:15:31.125Z,4.50
2019-05-21T02:17:58.417Z,8.30
2019-05-21T02:20:25.765Z,4.80
2019-05-21T02:22:53.021Z,5.07
2019-05-21T02:25:20.377Z,4.93
2019-05-21T02:27:47.640Z,4.57
2019-05-21T02:30:15.070Z,5.03
2019-05-21T02:32:42.365Z,6.00
2019-05-21T02:35:09.716Z,5.60
2019-05-21T02:37:37.086Z,5.23
2019-05-21T02:40:05.928Z,8.37
2019-05-21T02:42:33.270Z,4.57
2019-05-21T02:45:00.677Z,4.90
2019-05-21T02:47:28.121Z,5.40
2019-05-21T02:49:55.465Z,5.37
2019-05-21T02:52:22.728Z,5.10
2019-05-21T02:54:50.010Z,5.27
2019-05-21T02:57:17.304Z,6.27
2019-05-21T02:59:46.288Z,5.67
2019-05-21T03:02:23.700Z,6.20
2019-05-21T03:04:50.973Z,5.17
2019-05-21T03:07:18.260Z,5.53
2019-05-21T03:09:48.944Z,6.00
2019-05-21T03:12:16.685Z,5.80
2019-05-21T03:14:44.034Z,8.50
2019-05-21T03:17:11.402Z,5.33
2019-05-21T03:19:38.691Z,5.80
2019-05-21T03:22:06.139Z,5.53
2019-05-21T03:24:33.498Z,5.70
2019-05-21T03:27:00.845Z,9.30
2019-05-21T03:29:28.110Z,5.10
2019-05-21T03:31:55.425Z,5.47
2019-05-21T03:34:22.713Z,4.73
2019-05-21T03:36:49.989Z,5.73
2019-05-21T03:39:19.500Z,5.33
2019-05-21T03:41:46.306Z,7.83
2019-05-21T03:44:13.585Z,5.70
2019-05-21T03:46:41.029Z,6.87
2019-05-21T03:49:08.300Z,7.00
2019-05-21T03:51:35.575Z,7.23
2019-05-21T03:54:02.896Z,7.17
2019-05-21T03:56:30.241Z,7.07
2019-05-21T03:58:57.533Z,6.40
2019-05-21T04:01:24.893Z,5.40
2019-05-21T04:03:52.173Z,5.87
2019-05-21T04:06:19.445Z,7.87
2019-05-21T04:08:46.744Z,8.07
2019-05-21T04:11:14.072Z,7.10
2019-05-21T04:13:41.336Z,8.00
2019-05-21T04:16:13.090Z,5.43
2019-05-21T04:18:42.065Z,5.80
2019-05-21T04:21:09.333Z,5.80
2019-05-21T04:23:36.717Z,5.60
2019-05-21T04:26:04.063Z,5.57
2019-05-21T04:28:31.414Z,4.50
2019-05-21T04:30:58.712Z,4.60
2019-05-21T04:33:25.976Z,3.90
2019-05-21T04:35:53.257Z,5.20
2019-05-21T04:38:20.624Z,5.13
2019-05-21T04:40:47.962Z,6.30
2019-05-21T04:43:15.235Z,6.23
2019-05-21T04:45:42.550Z,6.50
2019-05-21T04:48:09.816Z,7.30
2019-05-21T04:50:37.085Z,6.73
2019-05-21T04:53:04.368Z,8.93
2019-05-21T04:55:31.640Z,7.33
2019-05-21T04:57:58.902Z,6.97
2019-05-21T05:00:26.286Z,6.57
2019-05-21T05:02:53.695Z,5.83
2019-05-21T05:05:21.113Z,6.40
2019-05-21T05:07:48.423Z,6.63
2019-05-21T05:10:15.685Z,6.77
2019-05-21T05:12:42.957Z,7.53
2019-05-21T05:15:10.389Z,8.53
2019-05-21T05:17:37.686Z,6.83
2019-05-21T05:20:05.711Z,4.90
2019-05-21T05:22:33.145Z,8.43
2019-05-21T05:25:00.417Z,4.00
2019-05-21T05:27:27.768Z,4.10
2019-05-21T05:29:55.121Z,2.90
2019-05-21T05:32:22.393Z,6.43
2019-05-21T05:34:49.669Z,2.37
2019-05-21T05:37:17.045Z,1.70
2019-05-21T05:39:44.318Z,1.93
2019-05-21T05:42:11.605Z,4.57
2019-05-21T05:44:38.965Z,1.70
2019-05-21T05:47:06.236Z,1.80
2019-05-21T05:49:35.149Z,3.17
2019-05-21T05:52:02.465Z,2.17
2019-05-21T05:54:29.745Z,1.17
2019-05-21T05:56:57.006Z,4.93
2019-05-21T05:59:24.313Z,1.40
2019-05-21T06:01:51.581Z,2.20
2019-05-21T06:04:18.885Z,0.80
2019-05-21T06:06:46.232Z,1.23
2019-05-21T06:09:13.506Z,1.47
2019-05-21T06:11:40.809Z,1.80
2019-05-21T06:14:08.245Z,1.27
2019-05-21T06:16:35.509Z,1.33
2019-05-21T06:19:02.794Z,6.20
2019-05-21T06:21:30.065Z,1.13
2019-05-21T06:23:57.335Z,2.67
2019-05-21T06:26:24.643Z,1.93
2019-05-21T06:28:51.915Z,2.77
2019-05-21T06:31:19.179Z,1.83
2019-05-21T06:33:46.616Z,1.60
2019-05-21T06:36:13.953Z,2.37
2019-05-21T06:38:41.220Z,2.30
2019-05-21T06:41:08.541Z,2.73
2019-05-21T06:43:35.878Z,1.40
2019-05-21T06:46:03.223Z,7.60
2019-05-21T06:48:30.601Z,1.30
2019-05-21T06:50:57.893Z,1.10
2019-05-21T06:53:25.289Z,0.70
2019-05-21T06:55:52.646Z,3.33
2019-05-21T06:58:19.928Z,1.20
2019-05-21T07:00:47.194Z,0.70
2019-05-21T07:03:14.512Z,0.70
2019-05-21T07:05:57.683Z,0.83
2019-05-21T07:08:12.393Z,0.90
2019-05-21T07:10:39.743Z,0.60
2019-05-21T07:13:07.052Z,0.70
2019-05-21T07:15:34.326Z,2.17
2019-05-21T07:18:01.617Z,0.70
2019-05-21T07:20:28.961Z,0.80
2019-05-21T07:22:56.463Z,1.33
2019-05-21T07:25:23.876Z,0.70
2019-05-21T07:27:51.211Z,1.00
2019-05-21T07:30:18.574Z,0.70
2019-05-21T07:32:45.895Z,0.77
2019-05-21T07:35:13.281Z,0.80
2019-05-21T07:37:40.577Z,6.50
2019-05-21T07:40:08.008Z,1.10
2019-05-21T07:42:35.272Z,1.00
2019-05-21T07:45:02.857Z,0.70
2019-05-21T07:47:30.120Z,1.00
2019-05-21T07:49:57.399Z,0.50
2019-05-21T07:52:24.766Z,1.60
2019-05-21T07:54:52.104Z,0.83
2019-05-21T07:57:19.370Z,1.53
2019-05-21T07:59:46.669Z,3.53
2019-05-21T08:02:13.947Z,0.70
2019-05-21T08:04:41.337Z,0.80
2019-05-21T08:07:08.785Z,2.10
2019-05-21T08:09:36.050Z,0.70
2019-05-21T08:12:22.843Z,1.77
2019-05-21T08:14:32.426Z,3.23
2019-05-21T08:16:59.689Z,1.23
2019-05-21T08:19:30.908Z,0.60
2019-05-21T08:21:56.057Z,0.60
2019-05-21T08:24:23.325Z,0.53
2019-05-21T08:26:50.602Z,0.50
2019-05-21T08:29:17.901Z,0.73
2019-05-21T08:31:45.253Z,0.60
2019-05-21T08:34:12.533Z,0.90
2019-05-21T08:36:42.889Z,1.37
2019-05-21T08:39:12.686Z,0.57
2019-05-21T08:41:40.256Z,1.53
2019-05-21T08:44:07.553Z,0.63
2019-05-21T08:46:34.817Z,0.70
2019-05-21T08:49:02.106Z,4.57
2019-05-21T08:51:29.469Z,3.13
2019-05-21T08:53:56.733Z,2.57
2019-05-21T08:56:24.004Z,0.90
2019-05-21T08:58:51.307Z,7.63
2019-05-21T09:01:18.741Z,5.00
2019-05-21T09:03:46.006Z,0.73
2019-05-21T09:06:13.387Z,1.00
2019-05-21T09:08:40.653Z,2.00
2019-05-21T09:11:07.925Z,3.43
2019-05-21T09:13:35.211Z,2.50
2019-05-21T09:16:02.552Z,1.87
2019-05-21T09:18:29.841Z,2.50
2019-05-21T09:20:57.118Z,1.27
2019-05-21T09:23:24.385Z,0.70
2019-05-21T09:25:51.685Z,1.97
2019-05-21T09:28:18.951Z,0.73
2019-05-21T09:30:46.221Z,1.30
2019-05-21T09:33:13.614Z,1.13
2019-05-21T09:35:40.881Z,1.67
2019-05-21T09:38:08.162Z,0.70
2019-05-21T09:40:35.469Z,0.67
2019-05-21T09:43:02.819Z,1.13
2019-05-21T09:45:30.199Z,0.90
2019-05-21T09:47:57.591Z,0.83
2019-05-21T09:50:25.014Z,0.80
2019-05-21T09:52:52.289Z,0.60
2019-05-21T09:55:19.606Z,0.90
2019-05-21T09:57:57.432Z,1.03
2019-05-21T10:00:43.050Z,0.90
2019-05-21T10:03:17.924Z,1.70
2019-05-21T10:05:45.188Z,2.20
2019-05-21T10:08:12.509Z,0.70
2019-05-21T10:10:39.848Z,0.90
2019-05-21T10:13:07.193Z,0.70
2019-05-21T10:15:34.470Z,3.30
2019-05-21T10:18:01.746Z,1.67
2019-05-21T10:20:29.129Z,0.63
2019-05-21T10:22:56.596Z,0.87
2019-05-21T10:25:24.044Z,1.17
2019-05-21T10:27:51.344Z,4.53
2019-05-21T10:30:18.685Z,0.70
2019-05-21T10:32:45.957Z,1.10
2019-05-21T10:35:13.310Z,0.90
2019-05-21T10:37:54.038Z,2.67
2019-05-21T10:40:09.958Z,0.73
2019-05-21T10:42:37.587Z,0.70
2019-05-21T10:45:07.636Z,1.53
2019-05-21T10:47:34.929Z,1.70
2019-05-21T10:50:02.374Z,0.70
2019-05-21T10:52:29.644Z,1.53
2019-05-21T10:54:56.966Z,0.93
2019-05-21T10:57:24.398Z,0.60
2019-05-21T10:59:51.748Z,0.70
2019-05-21T11:02:32.926Z,0.93
2019-05-21T11:05:01.847Z,4.50
2019-05-21T11:07:29.181Z,0.73
2019-05-21T11:09:56.610Z,0.60
2019-05-21T11:12:24.123Z,0.60
2019-05-21T11:14:51.399Z,1.27
2019-05-21T11:17:18.833Z,2.17
2019-05-21T11:19:46.346Z,2.43
2019-05-21T11:22:13.652Z,0.73
2019-05-21T11:24:40.921Z,0.80
2019-05-21T11:27:08.221Z,3.17
2019-05-21T11:29:35.493Z,0.87
2019-05-21T11:32:02.769Z,1.10
2019-05-21T11:34:30.128Z,0.60
2019-05-21T11:36:57.473Z,0.80
2019-05-21T11:39:24.786Z,1.00
2019-05-21T11:41:52.064Z,1.57
2019-05-21T11:44:19.402Z,6.63
2019-05-21T11:46:46.770Z,1.10
2019-05-21T11:49:14.044Z,0.73
2019-05-21T11:51:41.328Z,0.73
2019-05-21T11:54:08.689Z,2.30
2019-05-21T11:56:36.431Z,1.50
2019-05-21T11:59:03.899Z,0.77
2019-05-21T12:01:31.348Z,4.73
2019-05-21T12:03:58.624Z,2.03
2019-05-21T12:06:26.027Z,4.03
2019-05-21T12:08:56.966Z,1.97
2019-05-21T12:11:22.372Z,1.27
2019-05-21T12:13:49.816Z,1.03
2019-05-21T12:16:17.161Z,1.77
2019-05-21T12:18:44.569Z,0.60
2019-05-21T12:21:12.025Z,2.73
2019-05-21T12:23:39.334Z,1.53
2019-05-21T12:26:06.738Z,1.93
2019-05-21T12:28:34.062Z,1.07
2019-05-21T12:31:01.369Z,0.93
2019-05-21T12:33:28.646Z,0.60
2019-05-21T12:35:55.954Z,0.60
2019-05-21T12:38:23.229Z,0.60
2019-05-21T12:40:50.499Z,1.17
2019-05-21T12:43:17.845Z,1.03
2019-05-21T12:45:45.182Z,0.60
2019-05-21T12:48:12.570Z,0.60
2019-05-21T12:50:39.836Z,0.60
2019-05-21T12:53:07.132Z,1.63
2019-05-21T12:55:34.481Z,0.70
2019-05-21T12:58:01.747Z,1.80
2019-05-21T13:00:29.591Z,0.50
2019-05-21T13:02:57.005Z,0.50
2019-05-21T13:05:24.273Z,2.30
2019-05-21T13:07:51.549Z,1.37
2019-05-21T13:10:18.925Z,0.80
2019-05-21T13:12:46.199Z,0.53
2019-05-21T13:15:14.667Z,0.60
2019-05-21T13:17:41.968Z,0.80
2019-05-21T13:20:09.824Z,0.70
2019-05-21T13:22:37.215Z,0.70
2019-05-21T13:25:07.823Z,0.70
2019-05-21T13:27:35.153Z,1.60
2019-05-21T13:30:02.587Z,1.13
2019-05-21T13:32:30.000Z,0.70
2019-05-21T13:34:57.261Z,3.83
2019-05-21T13:37:24.525Z,1.13
2019-05-21T13:39:51.946Z,1.70
2019-05-21T13:42:19.280Z,2.40
2019-05-21T13:44:46.545Z,4.43
2019-05-21T13:47:13.842Z,3.30
2019-05-21T13:49:41.114Z,1.73
2019-05-21T13:52:08.384Z,0.73
2019-05-21T13:54:35.671Z,1.27
2019-05-21T13:57:03.002Z,0.80
2019-05-21T13:59:30.280Z,1.10
2019-05-21T14:01:57.630Z,1.60
2019-05-21T14:04:24.902Z,2.90
2019-05-21T14:06:52.317Z,1.20
2019-05-21T14:09:19.653Z,0.97
2019-05-21T14:11:46.925Z,1.27
2019-05-21T14:14:14.296Z,1.83
2019-05-21T14:16:41.574Z,1.20
2019-05-21T14:19:08.932Z,1.53
2019-05-21T14:21:36.269Z,1.40
2019-05-21T14:24:03.533Z,1.00
2019-05-21T14:26:31.174Z,0.80
2019-05-21T14:28:58.437Z,1.80
2019-05-21T14:31:25.760Z,4.10
2019-05-21T14:33:53.211Z,2.30
2019-05-21T14:36:20.546Z,0.90
2019-05-21T14:38:47.816Z,2.27
2019-05-21T14:41:15.181Z,2.13
2019-05-21T14:43:42.445Z,1.20
2019-05-21T14:46:09.715Z,1.07
2019-05-21T14:48:37.010Z,0.70
2019-05-21T14:51:05.036Z,1.50
2019-05-21T14:53:32.509Z,3.00
2019-05-21T14:55:59.789Z,7.20
2019-05-21T14:58:27.075Z,3.30
2019-05-21T15:00:54.412Z,1.70
2019-05-21T15:03:25.146Z,2.23
2019-05-21T15:05:50.775Z,2.10
2019-05-21T15:08:18.054Z,2.60
2019-05-21T15:10:48.871Z,1.03
2019-05-21T15:13:14.502Z,2.30
2019-05-21T15:15:41.779Z,4.37
2019-05-21T15:18:09.239Z,0.80
2019-05-21T15:20:47.084Z,2.10
2019-05-21T15:23:14.426Z,1.70
2019-05-21T15:25:41.778Z,1.80
2019-05-21T15:28:09.110Z,1.00
2019-05-21T15:30:36.406Z,2.90
2019-05-21T15:33:03.920Z,1.00
2019-05-21T15:35:31.328Z,0.70
2019-05-21T15:37:58.730Z,3.50
2019-05-21T15:40:26.443Z,1.03
2019-05-21T15:42:54.007Z,1.37
2019-05-21T15:45:21.456Z,1.37
2019-05-21T15:47:48.798Z,1.20
2019-05-21T15:50:16.057Z,1.10
2019-05-21T15:52:43.361Z,1.33
2019-05-21T15:55:10.706Z,1.20
2019-05-21T15:57:37.976Z,1.27
2019-05-21T16:00:08.906Z,1.00
2019-05-21T16:02:36.175Z,1.17
2019-05-21T16:05:04.511Z,4.73
2019-05-21T16:07:31.813Z,1.83
2019-05-21T16:09:59.092Z,1.10
2019-05-21T16:12:26.358Z,1.27
2019-05-21T16:14:53.664Z,1.27
2019-05-21T16:17:20.935Z,1.30
2019-05-21T16:19:48.211Z,0.97
2019-05-21T16:22:15.517Z,0.87
2019-05-21T16:24:42.789Z,1.13
2019-05-21T16:27:10.144Z,1.50
2019-05-21T16:29:37.516Z,1.33
2019-05-21T16:32:04.854Z,1.37
2019-05-21T16:34:32.260Z,0.97
2019-05-21T16:36:59.589Z,1.10
2019-05-21T16:39:27.093Z,0.80
2019-05-21T16:41:54.365Z,1.23
2019-05-21T16:44:21.793Z,0.83
2019-05-21T16:46:49.058Z,3.53
2019-05-21T16:49:16.410Z,1.10
2019-05-21T16:51:43.770Z,5.13
2019-05-21T16:54:11.028Z,0.93
2019-05-21T16:56:38.329Z,1.17
2019-05-21T16:59:05.664Z,1.50
2019-05-21T17:01:32.929Z,1.07
2019-05-21T17:04:00.461Z,1.43
2019-05-21T17:06:27.753Z,1.30
2019-05-21T17:08:55.867Z,1.40
2019-05-21T17:11:23.238Z,1.53
2019-05-21T17:13:50.506Z,1.53
2019-05-21T17:16:17.776Z,1.63
2019-05-21T17:18:45.154Z,1.10
2019-05-21T17:21:12.428Z,1.53
2019-05-21T17:23:39.694Z,1.63
2019-05-21T17:26:07.073Z,1.13
2019-05-21T17:28:34.369Z,1.27
2019-05-21T17:31:01.680Z,2.10
2019-05-21T17:33:28.970Z,2.40
2019-05-21T17:35:56.249Z,1.10
2019-05-21T17:38:24.561Z,1.30
2019-05-21T17:40:52.226Z,1.20
2019-05-21T17:43:19.499Z,1.40
2019-05-21T17:45:46.852Z,3.50
2019-05-21T17:48:14.198Z,1.30
2019-05-21T17:50:41.465Z,2.80
2019-05-21T17:53:08.842Z,1.33
2019-05-21T17:55:36.113Z,1.20
2019-05-21T17:58:03.498Z,1.10
2019-05-21T18:00:47.863Z,1.27
2019-05-21T18:03:15.372Z,1.50
2019-05-21T18:05:43.808Z,1.70
2019-05-21T18:08:11.097Z,1.60
2019-05-21T18:10:38.765Z,2.00
2019-05-21T18:13:06.281Z,1.60
2019-05-21T18:15:33.552Z,1.33
2019-05-21T18:18:01.493Z,1.60
2019-05-21T18:20:28.953Z,1.17
2019-05-21T18:22:56.225Z,1.23
2019-05-21T18:25:23.610Z,1.00
2019-05-21T18:27:51.072Z,1.43
2019-05-21T18:30:18.577Z,2.20
2019-05-21T18:32:46.422Z,1.50
2019-05-21T18:35:13.793Z,0.97
2019-05-21T18:37:41.135Z,1.50
2019-05-21T18:40:08.586Z,1.40
2019-05-21T18:42:35.961Z,1.17
2019-05-21T18:45:04.414Z,4.87
2019-05-21T18:47:31.680Z,1.43
2019-05-21T18:49:58.993Z,3.63
2019-05-21T18:52:26.329Z,7.33
2019-05-21T18:54:53.597Z,1.20
2019-05-21T18:57:20.939Z,2.20
2019-05-21T18:59:48.274Z,1.60
2019-05-21T19:02:15.973Z,2.70
2019-05-21T19:04:43.283Z,2.30
2019-05-21T19:07:11.368Z,2.60
2019-05-21T19:09:38.883Z,7.53
2019-05-21T19:12:06.333Z,2.43
2019-05-21T19:14:33.606Z,1.40
2019-05-21T19:17:00.874Z,1.70
2019-05-21T19:19:28.293Z,1.70
2019-05-21T19:21:55.694Z,2.40
2019-05-21T19:24:23.181Z,1.50
2019-05-21T19:26:50.493Z,2.40
2019-05-21T19:29:17.768Z,4.77
2019-05-21T19:31:45.120Z,56.40
2019-05-21T19:34:12.457Z,29.07
2019-05-21T19:36:39.813Z,22.30
2019-05-21T19:39:07.726Z,16.63
2019-05-21T19:41:35.303Z,18.03
2019-05-21T19:44:02.717Z,14.70
2019-05-21T19:46:30.197Z,15.03
2019-05-21T19:48:57.621Z,11.17
2019-05-21T19:51:24.906Z,11.37
2019-05-21T19:53:52.298Z,8.77
2019-05-21T19:56:19.672Z,4.00
2019-05-21T19:58:47.010Z,7.30
2019-05-21T20:01:14.346Z,5.70
2019-05-21T20:03:41.925Z,7.50
2019-05-21T20:06:10.254Z,6.90
2019-05-21T20:08:37.700Z,6.03
2019-05-21T20:11:06.287Z,4.33
2019-05-21T20:13:33.549Z,3.40
2019-05-21T20:16:02.861Z,3.40
2019-05-21T20:18:30.168Z,4.07
2019-05-21T20:20:57.705Z,3.00
2019-05-21T20:23:25.205Z,4.50
2019-05-21T20:25:56.573Z,4.50
2019-05-21T20:28:23.973Z,3.50
2019-05-21T20:30:51.616Z,3.77
2019-05-21T20:33:18.916Z,5.23
2019-05-21T20:35:47.316Z,3.67
2019-05-21T20:38:14.597Z,4.37
2019-05-21T20:40:42.051Z,3.13
2019-05-21T20:43:09.389Z,2.00
2019-05-21T20:45:38.366Z,1.97
2019-05-21T20:48:07.037Z,1.87
2019-05-21T20:50:34.374Z,3.40
2019-05-21T20:53:01.646Z,2.60
2019-05-21T20:55:32.875Z,2.90
2019-05-21T20:57:59.801Z,1.67
2019-05-21T21:00:44.413Z,2.37
2019-05-21T21:03:12.164Z,1.87
2019-05-21T21:05:39.965Z,1.40
2019-05-21T21:08:07.650Z,2.50
2019-05-21T21:10:35.152Z,1.77
2019-05-21T21:13:03.264Z,3.23
2019-05-21T21:15:31.626Z,1.63
2019-05-21T21:17:59.334Z,1.23
2019-05-21T21:20:26.603Z,3.13
2019-05-21T21:22:53.909Z,1.60
2019-05-21T21:25:21.712Z,2.60
2019-05-21T21:27:48.989Z,2.43
2019-05-21T21:30:16.354Z,1.60
2019-05-21T21:32:43.633Z,1.90
2019-05-21T21:35:12.205Z,2.33
2019-05-21T21:37:39.579Z,2.20
2019-05-21T21:40:08.857Z,2.37
2019-05-21T21:42:36.130Z,2.33
2019-05-21T21:45:04.469Z,2.07
2019-05-21T21:47:31.739Z,6.67
2019-05-21T21:50:00.216Z,3.27
2019-05-21T21:52:29.160Z,2.77
2019-05-21T21:54:56.421Z,4.47
2019-05-21T21:57:23.702Z,2.90
2019-05-21T21:59:50.985Z,2.87
2019-05-21T22:02:26.541Z,2.40
2019-05-21T22:04:54.893Z,2.57
2019-05-21T22:07:22.699Z,5.67
2019-05-21T22:09:50.217Z,7.87
2019-05-21T22:12:17.595Z,3.77
2019-05-21T22:14:51.069Z,3.60
2019-05-21T22:17:15.253Z,3.17
2019-05-21T22:19:42.705Z,2.70
2019-05-21T22:22:10.748Z,4.27
2019-05-21T22:24:38.083Z,3.87
2019-05-21T22:27:05.441Z,3.27
2019-05-21T22:29:32.777Z,3.00
2019-05-21T22:32:00.100Z,3.57
2019-05-21T22:34:27.801Z,3.83
2019-05-21T22:36:55.076Z,3.00
2019-05-21T22:39:24.148Z,3.93
2019-05-21T22:41:51.583Z,3.23
2019-05-21T22:44:18.917Z,4.37
2019-05-21T22:46:47.889Z,3.73
2019-05-21T22:49:15.264Z,4.27
2019-05-21T22:51:42.545Z,3.30
2019-05-21T22:54:09.813Z,3.10
2019-05-21T22:56:37.154Z,3.90
2019-05-21T22:59:04.641Z,2.43
2019-05-21T23:01:33.254Z,2.80
2019-05-21T23:04:00.572Z,2.80
2019-05-21T23:06:28.008Z,2.90
2019-05-21T23:08:55.352Z,3.23
2019-05-21T23:11:23.293Z,3.40
2019-05-21T23:13:50.789Z,3.20
2019-05-21T23:16:18.303Z,5.53
2019-05-21T23:18:45.959Z,5.60
2019-05-21T23:21:14.689Z,2.97
2019-05-21T23:23:43.677Z,4.83
2019-05-21T23:26:11.189Z,3.37
2019-05-21T23:28:39.828Z,2.70
2019-05-21T23:31:08.547Z,2.90
2019-05-21T23:33:35.989Z,3.57
2019-05-21T23:36:03.328Z,4.93
2019-05-21T23:38:31.265Z,3.47
2019-05-21T23:40:59.496Z,3.97
2019-05-21T23:43:27.606Z,3.83
2019-05-21T23:45:55.410Z,3.40
2019-05-21T23:48:23.610Z,4.50
2019-05-21T23:50:50.955Z,3.43
2019-05-21T23:53:18.284Z,3.50
2019-05-21T23:55:46.539Z,3.90
2019-05-21T23:58:14.157Z,4.20
